KPGA/PGA METAR and TAF weather

Enter ICAO airport designator
Station Type Date Time Source
KPGA METAR 2020/09/22 23:53 UTC NOAA

KPGA 222353Z AUTO 07007KT 10SM FEW037 27/07 A3010 RMK AO2 RAB20E42 SLP131 P0001 60002 T02720072 10322 20250 58004 TSNO


Station Type Date Time Source
KPGA Decoded METAR 2020/09/22 23:53 UTC NOAA

PAGE MUNICIPAL AIRPORT, AZ, United States (KPGA) 36-56N 111-27W 1307M
Sep 22, 2020 - 07:53 PM EDT / 2020.09.22 2353 UTC
Wind: from the ENE (070 degrees) at 8 MPH (7 KT):0
Visibility: 10 mile(s):0
Sky conditions: mostly clear
Precipitation last hour: 0.01 inches
Temperature: 81.0 F (27.2 C)
Dew Point: 45.0 F (7.2 C)
Relative Humidity: 28%
Pressure (altimeter): 30.1 in. Hg (1019 hPa)
Pressure tendency: 0.01 inches (0.4 hPa) lower than three hours ago
ob: KPGA 222353Z AUTO 07007KT 10SM FEW037 27/07 A3010 RMK AO2 RAB20E42 SLP131 P0001 60002 T02720072 10322 20250 58004 TSNO
cycle: 0

Station Type Date Time Source
KPGA TAF 2020/09/22 23:33 UTC NOAA

TAF
AMD KPGA 222231Z 2223/2318 VRB05KT P6SM VCSH SCT110 BKN150
TEMPO 2223/2301 VRB18G28KT -SHRA OVC110
FM230100 VRB05KT P6SM FEW120

Example: see airport list